sensor_id;sensor_type;location;lat;lon;timestamp;P1;durP1;ratioP1;P2;durP2;ratioP2
22628;SDS011;11481;53.694;9.910;2023-03-19T00:01:55;23.08;;;11.95;;
22628;SDS011;11481;53.694;9.910;2023-03-19T00:04:27;21.88;;;11.18;;
22628;SDS011;11481;53.694;9.910;2023-03-19T00:06:54;20.30;;;10.02;;
22628;SDS011;11481;53.694;9.910;2023-03-19T00:09:21;20.48;;;10.98;;
22628;SDS011;11481;53.694;9.910;2023-03-19T00:11:48;22.77;;;11.23;;
22628;SDS011;11481;53.694;9.910;2023-03-19T00:14:15;24.85;;;11.43;;
22628;SDS011;11481;53.694;9.910;2023-03-19T00:16:42;22.15;;;10.43;;
22628;SDS011;11481;53.694;9.910;2023-03-19T00:19:09;21.67;;;10.57;;
22628;SDS011;11481;53.694;9.910;2023-03-19T00:21:36;22.23;;;10.82;;
22628;SDS011;11481;53.694;9.910;2023-03-19T00:24:02;21.08;;;10.65;;
22628;SDS011;11481;53.694;9.910;2023-03-19T00:26:30;22.33;;;10.55;;
22628;SDS011;11481;53.694;9.910;2023-03-19T00:28:58;19.35;;;10.13;;
22628;SDS011;11481;53.694;9.910;2023-03-19T00:31:26;19.45;;;10.95;;
22628;SDS011;11481;53.694;9.910;2023-03-19T00:33:55;21.75;;;10.85;;
22628;SDS011;11481;53.694;9.910;2023-03-19T00:36:23;24.38;;;10.43;;
22628;SDS011;11481;53.694;9.910;2023-03-19T00:38:52;21.02;;;10.35;;
22628;SDS011;11481;53.694;9.910;2023-03-19T00:41:19;17.83;;;9.77;;
22628;SDS011;11481;53.694;9.910;2023-03-19T00:43:50;20.13;;;8.45;;
22628;SDS011;11481;53.694;9.910;2023-03-19T00:46:19;21.48;;;9.43;;
22628;SDS011;11481;53.694;9.910;2023-03-19T00:48:46;16.23;;;8.70;;
22628;SDS011;11481;53.694;9.910;2023-03-19T00:51:13;18.35;;;9.10;;
22628;SDS011;11481;53.694;9.910;2023-03-19T00:53:40;17.35;;;8.80;;
22628;SDS011;11481;53.694;9.910;2023-03-19T00:56:09;16.30;;;8.27;;
22628;SDS011;11481;53.694;9.910;2023-03-19T00:58:37;16.30;;;8.13;;
22628;SDS011;11481;53.694;9.910;2023-03-19T01:01:07;18.60;;;8.52;;
22628;SDS011;11481;53.694;9.910;2023-03-19T01:03:34;13.88;;;7.80;;
22628;SDS011;11481;53.694;9.910;2023-03-19T01:06:02;15.20;;;7.82;;
22628;SDS011;11481;53.694;9.910;2023-03-19T01:08:30;16.17;;;8.85;;
22628;SDS011;11481;53.694;9.910;2023-03-19T01:11:31;15.50;;;8.20;;
22628;SDS011;11481;53.694;9.910;2023-03-19T01:13:50;15.05;;;7.95;;
22628;SDS011;11481;53.694;9.910;2023-03-19T01:16:17;14.82;;;8.50;;
22628;SDS011;11481;53.694;9.910;2023-03-19T01:18:44;15.07;;;8.05;;
22628;SDS011;11481;53.694;9.910;2023-03-19T01:21:11;14.05;;;7.55;;
22628;SDS011;11481;53.694;9.910;2023-03-19T01:23:37;14.07;;;8.05;;
22628;SDS011;11481;53.694;9.910;2023-03-19T01:26:04;17.08;;;8.73;;
22628;SDS011;11481;53.694;9.910;2023-03-19T01:28:31;18.60;;;8.85;;
22628;SDS011;11481;53.694;9.910;2023-03-19T01:30:59;20.42;;;9.73;;
22628;SDS011;11481;53.694;9.910;2023-03-19T01:33:27;20.35;;;9.65;;
22628;SDS011;11481;53.694;9.910;2023-03-19T01:35:53;19.17;;;9.95;;
22628;SDS011;11481;53.694;9.910;2023-03-19T01:38:20;22.90;;;10.43;;
22628;SDS011;11481;53.694;9.910;2023-03-19T01:40:47;20.25;;;9.65;;
22628;SDS011;11481;53.694;9.910;2023-03-19T01:43:18;16.40;;;8.27;;
22628;SDS011;11481;53.694;9.910;2023-03-19T01:45:50;15.32;;;8.00;;
22628;SDS011;11481;53.694;9.910;2023-03-19T01:51:08;16.98;;;8.63;;
22628;SDS011;11481;53.694;9.910;2023-03-19T01:53:37;16.27;;;8.50;;
22628;SDS011;11481;53.694;9.910;2023-03-19T01:56:11;17.27;;;8.18;;
22628;SDS011;11481;53.694;9.910;2023-03-19T01:58:42;14.30;;;7.50;;
22628;SDS011;11481;53.694;9.910;2023-03-19T02:01:11;16.13;;;8.00;;
22628;SDS011;11481;53.694;9.910;2023-03-19T02:03:38;14.32;;;7.60;;
22628;SDS011;11481;53.694;9.910;2023-03-19T02:06:06;15.98;;;8.23;;
22628;SDS011;11481;53.694;9.910;2023-03-19T02:08:34;13.30;;;7.30;;
22628;SDS011;11481;53.694;9.910;2023-03-19T02:11:02;13.18;;;7.43;;
22628;SDS011;11481;53.694;9.910;2023-03-19T02:13:30;13.57;;;7.22;;
22628;SDS011;11481;53.694;9.910;2023-03-19T02:15:56;15.52;;;7.85;;
22628;SDS011;11481;53.694;9.910;2023-03-19T02:18:24;14.35;;;7.30;;
22628;SDS011;11481;53.694;9.910;2023-03-19T02:21:02;18.10;;;8.68;;
22628;SDS011;11481;53.694;9.910;2023-03-19T02:23:37;20.40;;;10.38;;
22628;SDS011;11481;53.694;9.910;2023-03-19T02:26:28;15.23;;;8.38;;
22628;SDS011;11481;53.694;9.910;2023-03-19T02:28:56;17.95;;;7.82;;
22628;SDS011;11481;53.694;9.910;2023-03-19T02:31:23;15.27;;;8.20;;
22628;SDS011;11481;53.694;9.910;2023-03-19T02:34:00;15.25;;;8.38;;
22628;SDS011;11481;53.694;9.910;2023-03-19T02:36:38;16.13;;;8.50;;
22628;SDS011;11481;53.694;9.910;2023-03-19T02:39:13;18.63;;;8.80;;
22628;SDS011;11481;53.694;9.910;2023-03-19T02:41:46;13.40;;;7.28;;
22628;SDS011;11481;53.694;9.910;2023-03-19T02:44:14;15.25;;;7.43;;
22628;SDS011;11481;53.694;9.910;2023-03-19T02:46:45;15.40;;;7.30;;
22628;SDS011;11481;53.694;9.910;2023-03-19T02:49:12;14.52;;;7.10;;
22628;SDS011;11481;53.694;9.910;2023-03-19T02:51:38;12.88;;;6.82;;
22628;SDS011;11481;53.694;9.910;2023-03-19T02:54:07;12.68;;;6.93;;
22628;SDS011;11481;53.694;9.910;2023-03-19T02:56:33;15.50;;;6.70;;
22628;SDS011;11481;53.694;9.910;2023-03-19T02:59:00;15.32;;;7.10;;
22628;SDS011;11481;53.694;9.910;2023-03-19T03:01:27;13.57;;;6.95;;
22628;SDS011;11481;53.694;9.910;2023-03-19T03:03:55;15.10;;;7.13;;
22628;SDS011;11481;53.694;9.910;2023-03-19T03:06:21;14.93;;;6.78;;
22628;SDS011;11481;53.694;9.910;2023-03-19T03:08:48;14.57;;;7.25;;
22628;SDS011;11481;53.694;9.910;2023-03-19T03:11:15;10.38;;;6.40;;
22628;SDS011;11481;53.694;9.910;2023-03-19T03:13:42;12.40;;;6.47;;
22628;SDS011;11481;53.694;9.910;2023-03-19T03:16:09;15.70;;;6.63;;
22628;SDS011;11481;53.694;9.910;2023-03-19T03:18:35;12.30;;;6.30;;
22628;SDS011;11481;53.694;9.910;2023-03-19T03:21:02;14.25;;;7.03;;
22628;SDS011;11481;53.694;9.910;2023-03-19T03:23:29;15.15;;;5.95;;
22628;SDS011;11481;53.694;9.910;2023-03-19T03:25:56;14.02;;;6.70;;
22628;SDS011;11481;53.694;9.910;2023-03-19T03:28:23;17.23;;;6.88;;
22628;SDS011;11481;53.694;9.910;2023-03-19T03:30:49;11.25;;;6.22;;
22628;SDS011;11481;53.694;9.910;2023-03-19T03:33:16;11.98;;;5.78;;
22628;SDS011;11481;53.694;9.910;2023-03-19T03:35:43;12.07;;;6.03;;
22628;SDS011;11481;53.694;9.910;2023-03-19T03:38:10;14.25;;;6.28;;
22628;SDS011;11481;53.694;9.910;2023-03-19T03:40:37;11.02;;;5.60;;
22628;SDS011;11481;53.694;9.910;2023-03-19T03:43:04;11.48;;;5.88;;
22628;SDS011;11481;53.694;9.910;2023-03-19T03:45:31;12.00;;;5.85;;
22628;SDS011;11481;53.694;9.910;2023-03-19T03:47:58;11.20;;;5.82;;
22628;SDS011;11481;53.694;9.910;2023-03-19T03:50:25;10.32;;;5.32;;
22628;SDS011;11481;53.694;9.910;2023-03-19T03:52:51;13.15;;;5.80;;
22628;SDS011;11481;53.694;9.910;2023-03-19T03:55:18;11.32;;;5.70;;
22628;SDS011;11481;53.694;9.910;2023-03-19T03:57:45;12.27;;;6.13;;
22628;SDS011;11481;53.694;9.910;2023-03-19T04:00:12;9.95;;;5.20;;
22628;SDS011;11481;53.694;9.910;2023-03-19T04:02:39;12.77;;;5.43;;
22628;SDS011;11481;53.694;9.910;2023-03-19T04:05:06;10.80;;;5.03;;
22628;SDS011;11481;53.694;9.910;2023-03-19T04:07:33;11.23;;;5.57;;
22628;SDS011;11481;53.694;9.910;2023-03-19T04:10:00;12.23;;;5.75;;
22628;SDS011;11481;53.694;9.910;2023-03-19T04:12:27;12.52;;;6.00;;
22628;SDS011;11481;53.694;9.910;2023-03-19T04:14:53;10.68;;;5.15;;
22628;SDS011;11481;53.694;9.910;2023-03-19T04:17:20;13.02;;;5.25;;
22628;SDS011;11481;53.694;9.910;2023-03-19T04:19:47;8.38;;;4.57;;
22628;SDS011;11481;53.694;9.910;2023-03-19T04:22:14;10.10;;;5.03;;
22628;SDS011;11481;53.694;9.910;2023-03-19T04:24:41;11.43;;;5.40;;
22628;SDS011;11481;53.694;9.910;2023-03-19T04:27:07;9.85;;;5.05;;
22628;SDS011;11481;53.694;9.910;2023-03-19T04:29:34;10.73;;;5.10;;
22628;SDS011;11481;53.694;9.910;2023-03-19T04:32:01;12.35;;;4.97;;
22628;SDS011;11481;53.694;9.910;2023-03-19T04:34:28;10.27;;;4.88;;
22628;SDS011;11481;53.694;9.910;2023-03-19T04:36:54;14.00;;;5.65;;
22628;SDS011;11481;53.694;9.910;2023-03-19T04:39:21;8.60;;;5.10;;
22628;SDS011;11481;53.694;9.910;2023-03-19T04:41:49;8.88;;;5.07;;
22628;SDS011;11481;53.694;9.910;2023-03-19T04:44:16;10.73;;;4.85;;
22628;SDS011;11481;53.694;9.910;2023-03-19T04:46:43;11.45;;;4.70;;
22628;SDS011;11481;53.694;9.910;2023-03-19T04:49:11;8.75;;;4.85;;
22628;SDS011;11481;53.694;9.910;2023-03-19T04:51:38;11.90;;;5.05;;
22628;SDS011;11481;53.694;9.910;2023-03-19T04:54:05;10.45;;;4.93;;
22628;SDS011;11481;53.694;9.910;2023-03-19T04:56:33;8.20;;;4.32;;
22628;SDS011;11481;53.694;9.910;2023-03-19T04:58:59;12.10;;;5.10;;
22628;SDS011;11481;53.694;9.910;2023-03-19T05:01:26;10.18;;;3.92;;
22628;SDS011;11481;53.694;9.910;2023-03-19T05:03:54;9.80;;;4.75;;
22628;SDS011;11481;53.694;9.910;2023-03-19T05:06:21;8.20;;;4.55;;
22628;SDS011;11481;53.694;9.910;2023-03-19T05:08:48;7.70;;;4.28;;
22628;SDS011;11481;53.694;9.910;2023-03-19T05:11:15;7.57;;;4.35;;
22628;SDS011;11481;53.694;9.910;2023-03-19T05:13:41;7.40;;;3.92;;
22628;SDS011;11481;53.694;9.910;2023-03-19T05:16:08;9.35;;;4.22;;
22628;SDS011;11481;53.694;9.910;2023-03-19T05:18:35;10.18;;;4.82;;
22628;SDS011;11481;53.694;9.910;2023-03-19T05:21:07;8.00;;;4.25;;
22628;SDS011;11481;53.694;9.910;2023-03-19T05:23:37;8.23;;;4.00;;
22628;SDS011;11481;53.694;9.910;2023-03-19T05:26:05;10.00;;;4.90;;
22628;SDS011;11481;53.694;9.910;2023-03-19T05:28:33;8.93;;;4.38;;
22628;SDS011;11481;53.694;9.910;2023-03-19T05:31:00;13.50;;;5.70;;
22628;SDS011;11481;53.694;9.910;2023-03-19T05:33:29;9.15;;;4.70;;
22628;SDS011;11481;53.694;9.910;2023-03-19T05:35:57;11.50;;;5.45;;
22628;SDS011;11481;53.694;9.910;2023-03-19T05:38:24;8.38;;;4.47;;
22628;SDS011;11481;53.694;9.910;2023-03-19T05:40:51;9.45;;;4.55;;
22628;SDS011;11481;53.694;9.910;2023-03-19T05:43:17;8.27;;;4.05;;
22628;SDS011;11481;53.694;9.910;2023-03-19T05:45:48;8.57;;;4.20;;
22628;SDS011;11481;53.694;9.910;2023-03-19T05:48:17;9.02;;;4.40;;
22628;SDS011;11481;53.694;9.910;2023-03-19T05:50:45;7.28;;;3.72;;
22628;SDS011;11481;53.694;9.910;2023-03-19T05:53:12;8.25;;;3.53;;
22628;SDS011;11481;53.694;9.910;2023-03-19T05:55:39;7.68;;;3.40;;
22628;SDS011;11481;53.694;9.910;2023-03-19T05:58:06;7.88;;;3.70;;
22628;SDS011;11481;53.694;9.910;2023-03-19T06:00:32;7.60;;;3.65;;
22628;SDS011;11481;53.694;9.910;2023-03-19T06:03:00;7.63;;;3.70;;
22628;SDS011;11481;53.694;9.910;2023-03-19T06:05:27;6.95;;;3.47;;
22628;SDS011;11481;53.694;9.910;2023-03-19T06:07:54;8.63;;;3.67;;
22628;SDS011;11481;53.694;9.910;2023-03-19T06:10:20;8.70;;;4.00;;
22628;SDS011;11481;53.694;9.910;2023-03-19T06:12:47;6.55;;;3.20;;
22628;SDS011;11481;53.694;9.910;2023-03-19T06:15:14;8.50;;;3.90;;
22628;SDS011;11481;53.694;9.910;2023-03-19T06:17:42;11.02;;;4.00;;
22628;SDS011;11481;53.694;9.910;2023-03-19T06:20:10;8.18;;;4.20;;
22628;SDS011;11481;53.694;9.910;2023-03-19T06:22:38;8.73;;;4.82;;
22628;SDS011;11481;53.694;9.910;2023-03-19T06:25:05;10.05;;;4.78;;
22628;SDS011;11481;53.694;9.910;2023-03-19T06:27:34;7.85;;;4.25;;
22628;SDS011;11481;53.694;9.910;2023-03-19T06:30:01;7.70;;;4.10;;
22628;SDS011;11481;53.694;9.910;2023-03-19T06:32:31;8.40;;;4.38;;
22628;SDS011;11481;53.694;9.910;2023-03-19T06:34:59;7.40;;;3.95;;
22628;SDS011;11481;53.694;9.910;2023-03-19T06:37:26;7.68;;;3.97;;
22628;SDS011;11481;53.694;9.910;2023-03-19T06:39:52;7.47;;;4.13;;
22628;SDS011;11481;53.694;9.910;2023-03-19T06:42:22;8.35;;;3.92;;
22628;SDS011;11481;53.694;9.910;2023-03-19T06:44:49;9.88;;;4.00;;
22628;SDS011;11481;53.694;9.910;2023-03-19T06:47:18;8.40;;;4.13;;
22628;SDS011;11481;53.694;9.910;2023-03-19T06:49:46;8.57;;;4.20;;
22628;SDS011;11481;53.694;9.910;2023-03-19T06:52:13;6.78;;;3.75;;
22628;SDS011;11481;53.694;9.910;2023-03-19T06:54:42;8.68;;;4.22;;
22628;SDS011;11481;53.694;9.910;2023-03-19T06:57:09;6.97;;;4.05;;
22628;SDS011;11481;53.694;9.910;2023-03-19T06:59:36;9.93;;;4.88;;
22628;SDS011;11481;53.694;9.910;2023-03-19T07:02:03;9.07;;;4.57;;
22628;SDS011;11481;53.694;9.910;2023-03-19T07:04:35;7.20;;;4.13;;
22628;SDS011;11481;53.694;9.910;2023-03-19T07:07:02;8.90;;;4.95;;
22628;SDS011;11481;53.694;9.910;2023-03-19T07:09:30;10.55;;;4.88;;
22628;SDS011;11481;53.694;9.910;2023-03-19T07:11:57;8.60;;;4.65;;
22628;SDS011;11481;53.694;9.910;2023-03-19T07:14:24;9.00;;;5.10;;
22628;SDS011;11481;53.694;9.910;2023-03-19T07:16:51;9.60;;;5.20;;
22628;SDS011;11481;53.694;9.910;2023-03-19T07:19:18;11.20;;;5.40;;
22628;SDS011;11481;53.694;9.910;2023-03-19T07:21:45;10.70;;;4.88;;
22628;SDS011;11481;53.694;9.910;2023-03-19T07:24:12;12.77;;;6.07;;
22628;SDS011;11481;53.694;9.910;2023-03-19T07:26:39;11.00;;;5.43;;
22628;SDS011;11481;53.694;9.910;2023-03-19T07:29:06;10.70;;;5.53;;
22628;SDS011;11481;53.694;9.910;2023-03-19T07:31:33;8.82;;;4.90;;
22628;SDS011;11481;53.694;9.910;2023-03-19T07:33:59;9.25;;;5.05;;
22628;SDS011;11481;53.694;9.910;2023-03-19T07:36:26;10.93;;;5.53;;
22628;SDS011;11481;53.694;9.910;2023-03-19T07:38:53;9.60;;;4.97;;
22628;SDS011;11481;53.694;9.910;2023-03-19T07:41:20;11.07;;;5.25;;
22628;SDS011;11481;53.694;9.910;2023-03-19T07:43:47;10.65;;;5.60;;
22628;SDS011;11481;53.694;9.910;2023-03-19T07:46:14;10.43;;;5.43;;
22628;SDS011;11481;53.694;9.910;2023-03-19T07:48:41;10.38;;;6.00;;
22628;SDS011;11481;53.694;9.910;2023-03-19T07:51:07;12.07;;;6.28;;
22628;SDS011;11481;53.694;9.910;2023-03-19T07:53:34;11.52;;;5.32;;
22628;SDS011;11481;53.694;9.910;2023-03-19T07:56:01;11.30;;;6.18;;
22628;SDS011;11481;53.694;9.910;2023-03-19T07:58:28;10.10;;;5.30;;
22628;SDS011;11481;53.694;9.910;2023-03-19T08:00:55;13.88;;;6.35;;
22628;SDS011;11481;53.694;9.910;2023-03-19T08:03:22;10.95;;;5.68;;
22628;SDS011;11481;53.694;9.910;2023-03-19T08:05:48;14.27;;;6.15;;
22628;SDS011;11481;53.694;9.910;2023-03-19T08:08:15;12.68;;;6.13;;
22628;SDS011;11481;53.694;9.910;2023-03-19T08:10:42;13.60;;;5.70;;
22628;SDS011;11481;53.694;9.910;2023-03-19T08:13:09;11.68;;;5.78;;
22628;SDS011;11481;53.694;9.910;2023-03-19T08:15:36;10.52;;;5.90;;
22628;SDS011;11481;53.694;9.910;2023-03-19T08:18:03;10.77;;;5.30;;
22628;SDS011;11481;53.694;9.910;2023-03-19T08:20:31;12.40;;;5.90;;
22628;SDS011;11481;53.694;9.910;2023-03-19T08:22:58;10.70;;;5.43;;
22628;SDS011;11481;53.694;9.910;2023-03-19T08:25:25;8.70;;;5.00;;
22628;SDS011;11481;53.694;9.910;2023-03-19T08:27:52;9.77;;;5.43;;
22628;SDS011;11481;53.694;9.910;2023-03-19T08:30:19;9.18;;;5.05;;
22628;SDS011;11481;53.694;9.910;2023-03-19T08:32:46;9.70;;;5.28;;
22628;SDS011;11481;53.694;9.910;2023-03-19T08:35:14;10.57;;;5.20;;
22628;SDS011;11481;53.694;9.910;2023-03-19T08:37:43;11.35;;;5.75;;
22628;SDS011;11481;53.694;9.910;2023-03-19T08:40:10;13.07;;;5.60;;
22628;SDS011;11481;53.694;9.910;2023-03-19T08:42:37;7.88;;;4.88;;
22628;SDS011;11481;53.694;9.910;2023-03-19T08:45:10;11.30;;;5.35;;
22628;SDS011;11481;53.694;9.910;2023-03-19T08:47:38;12.63;;;5.65;;
22628;SDS011;11481;53.694;9.910;2023-03-19T08:50:06;11.30;;;5.88;;
22628;SDS011;11481;53.694;9.910;2023-03-19T08:52:33;12.57;;;6.13;;
22628;SDS011;11481;53.694;9.910;2023-03-19T08:55:00;12.25;;;5.50;;
22628;SDS011;11481;53.694;9.910;2023-03-19T08:57:27;9.23;;;5.28;;
22628;SDS011;11481;53.694;9.910;2023-03-19T08:59:56;12.30;;;5.30;;
22628;SDS011;11481;53.694;9.910;2023-03-19T09:02:23;9.55;;;4.47;;
22628;SDS011;11481;53.694;9.910;2023-03-19T09:04:50;7.07;;;4.22;;
22628;SDS011;11481;53.694;9.910;2023-03-19T09:07:17;10.13;;;4.70;;
22628;SDS011;11481;53.694;9.910;2023-03-19T09:09:44;8.38;;;4.88;;
22628;SDS011;11481;53.694;9.910;2023-03-19T09:12:12;8.05;;;4.43;;
22628;SDS011;11481;53.694;9.910;2023-03-19T09:14:41;11.40;;;4.70;;
22628;SDS011;11481;53.694;9.910;2023-03-19T09:17:08;9.95;;;4.22;;
22628;SDS011;11481;53.694;9.910;2023-03-19T09:19:36;7.13;;;3.63;;
22628;SDS011;11481;53.694;9.910;2023-03-19T09:22:03;8.90;;;4.20;;
22628;SDS011;11481;53.694;9.910;2023-03-19T09:24:30;7.95;;;3.55;;
22628;SDS011;11481;53.694;9.910;2023-03-19T09:26:57;7.57;;;3.67;;
22628;SDS011;11481;53.694;9.910;2023-03-19T09:29:24;6.70;;;3.70;;
22628;SDS011;11481;53.694;9.910;2023-03-19T09:31:51;8.02;;;3.38;;
22628;SDS011;11481;53.694;9.910;2023-03-19T09:34:20;5.57;;;3.58;;
22628;SDS011;11481;53.694;9.910;2023-03-19T09:36:47;8.45;;;3.20;;
22628;SDS011;11481;53.694;9.910;2023-03-19T09:39:13;6.82;;;3.17;;
22628;SDS011;11481;53.694;9.910;2023-03-19T09:44:13;6.65;;;3.42;;
22628;SDS011;11481;53.694;9.910;2023-03-19T09:49:52;7.68;;;3.20;;
22628;SDS011;11481;53.694;9.910;2023-03-19T09:57:49;5.80;;;3.30;;
22628;SDS011;11481;53.694;9.910;2023-03-19T10:02:49;6.25;;;3.35;;
22628;SDS011;11481;53.694;9.910;2023-03-19T10:11:32;5.85;;;2.83;;
22628;SDS011;11481;53.694;9.910;2023-03-19T10:14:28;6.65;;;3.47;;
22628;SDS011;11481;53.694;9.910;2023-03-19T10:17:23;7.45;;;3.28;;
22628;SDS011;11481;53.694;9.910;2023-03-19T10:19:56;8.68;;;3.00;;
22628;SDS011;11481;53.694;9.910;2023-03-19T10:22:37;7.25;;;3.28;;
22628;SDS011;11481;53.694;9.910;2023-03-19T10:25:14;6.18;;;3.50;;
22628;SDS011;11481;53.694;9.910;2023-03-19T10:27:49;7.60;;;3.50;;
22628;SDS011;11481;53.694;9.910;2023-03-19T10:30:24;7.13;;;3.10;;
22628;SDS011;11481;53.694;9.910;2023-03-19T10:32:52;6.85;;;3.00;;
22628;SDS011;11481;53.694;9.910;2023-03-19T10:35:37;6.43;;;2.97;;
22628;SDS011;11481;53.694;9.910;2023-03-19T10:38:20;6.72;;;3.20;;
22628;SDS011;11481;53.694;9.910;2023-03-19T10:41:00;6.15;;;3.08;;
22628;SDS011;11481;53.694;9.910;2023-03-19T10:43:55;5.32;;;3.00;;
22628;SDS011;11481;53.694;9.910;2023-03-19T10:46:32;9.40;;;3.33;;
22628;SDS011;11481;53.694;9.910;2023-03-19T10:49:02;5.80;;;2.63;;
22628;SDS011;11481;53.694;9.910;2023-03-19T10:51:29;6.68;;;3.08;;
22628;SDS011;11481;53.694;9.910;2023-03-19T10:53:58;4.00;;;2.63;;
22628;SDS011;11481;53.694;9.910;2023-03-19T10:56:27;7.30;;;3.00;;
22628;SDS011;11481;53.694;9.910;2023-03-19T10:59:03;7.13;;;3.25;;
22628;SDS011;11481;53.694;9.910;2023-03-19T11:01:33;7.28;;;3.45;;
22628;SDS011;11481;53.694;9.910;2023-03-19T11:04:21;4.88;;;2.83;;
22628;SDS011;11481;53.694;9.910;2023-03-19T11:06:54;5.68;;;3.00;;
22628;SDS011;11481;53.694;9.910;2023-03-19T11:09:28;10.50;;;3.53;;
22628;SDS011;11481;53.694;9.910;2023-03-19T11:14:50;5.97;;;3.25;;
22628;SDS011;11481;53.694;9.910;2023-03-19T11:19:53;6.38;;;2.88;;
22628;SDS011;11481;53.694;9.910;2023-03-19T11:22:23;16.38;;;6.10;;
22628;SDS011;11481;53.694;9.910;2023-03-19T11:24:56;11.25;;;3.70;;
22628;SDS011;11481;53.694;9.910;2023-03-19T11:27:30;7.63;;;3.55;;
22628;SDS011;11481;53.694;9.910;2023-03-19T11:30:01;9.27;;;3.63;;
22628;SDS011;11481;53.694;9.910;2023-03-19T11:35:21;8.82;;;3.72;;
22628;SDS011;11481;53.694;9.910;2023-03-19T11:37:57;7.57;;;3.47;;
22628;SDS011;11481;53.694;9.910;2023-03-19T11:42:55;6.40;;;3.70;;
22628;SDS011;11481;53.694;9.910;2023-03-19T11:45:48;7.47;;;4.13;;
22628;SDS011;11481;53.694;9.910;2023-03-19T11:48:48;7.28;;;3.53;;
22628;SDS011;11481;53.694;9.910;2023-03-19T11:51:58;7.25;;;3.08;;
22628;SDS011;11481;53.694;9.910;2023-03-19T11:54:40;7.70;;;3.15;;
22628;SDS011;11481;53.694;9.910;2023-03-19T12:03:22;7.20;;;3.35;;
22628;SDS011;11481;53.694;9.910;2023-03-19T12:06:07;7.15;;;3.42;;
22628;SDS011;11481;53.694;9.910;2023-03-19T12:09:44;5.47;;;2.72;;
22628;SDS011;11481;53.694;9.910;2023-03-19T12:14:22;6.88;;;2.47;;
22628;SDS011;11481;53.694;9.910;2023-03-19T12:23:02;5.65;;;2.60;;
22628;SDS011;11481;53.694;9.910;2023-03-19T12:25:51;7.90;;;2.90;;
22628;SDS011;11481;53.694;9.910;2023-03-19T12:28:31;6.10;;;2.40;;
22628;SDS011;11481;53.694;9.910;2023-03-19T12:36:36;4.53;;;2.42;;
22628;SDS011;11481;53.694;9.910;2023-03-19T12:39:16;5.50;;;2.40;;
22628;SDS011;11481;53.694;9.910;2023-03-19T12:41:47;7.63;;;2.92;;
22628;SDS011;11481;53.694;9.910;2023-03-19T12:46:51;4.35;;;2.28;;
22628;SDS011;11481;53.694;9.910;2023-03-19T12:49:27;6.93;;;3.05;;
22628;SDS011;11481;53.694;9.910;2023-03-19T12:52:07;4.57;;;2.67;;
22628;SDS011;11481;53.694;9.910;2023-03-19T12:54:49;5.60;;;2.75;;
22628;SDS011;11481;53.694;9.910;2023-03-19T12:57:37;4.53;;;2.40;;
22628;SDS011;11481;53.694;9.910;2023-03-19T13:03:11;4.03;;;2.35;;
22628;SDS011;11481;53.694;9.910;2023-03-19T13:05:44;9.05;;;2.78;;
22628;SDS011;11481;53.694;9.910;2023-03-19T13:08:36;8.82;;;3.20;;
22628;SDS011;11481;53.694;9.910;2023-03-19T13:11:16;7.07;;;3.15;;
22628;SDS011;11481;53.694;9.910;2023-03-19T13:13:52;6.57;;;3.53;;
22628;SDS011;11481;53.694;9.910;2023-03-19T13:21:57;8.15;;;3.58;;
22628;SDS011;11481;53.694;9.910;2023-03-19T13:24:28;6.82;;;3.03;;
22628;SDS011;11481;53.694;9.910;2023-03-19T13:26:58;9.20;;;3.50;;
22628;SDS011;11481;53.694;9.910;2023-03-19T13:29:27;6.78;;;3.30;;
22628;SDS011;11481;53.694;9.910;2023-03-19T13:32:01;6.30;;;3.40;;
22628;SDS011;11481;53.694;9.910;2023-03-19T13:34:36;7.63;;;3.90;;
22628;SDS011;11481;53.694;9.910;2023-03-19T13:37:05;5.95;;;3.08;;
22628;SDS011;11481;53.694;9.910;2023-03-19T13:39:41;10.48;;;3.70;;
22628;SDS011;11481;53.694;9.910;2023-03-19T13:42:22;8.45;;;3.38;;
22628;SDS011;11481;53.694;9.910;2023-03-19T13:47:47;6.25;;;3.25;;
22628;SDS011;11481;53.694;9.910;2023-03-19T13:50:20;7.45;;;3.70;;
22628;SDS011;11481;53.694;9.910;2023-03-19T13:52:50;7.05;;;3.90;;
22628;SDS011;11481;53.694;9.910;2023-03-19T14:03:24;13.10;;;5.68;;
22628;SDS011;11481;53.694;9.910;2023-03-19T14:05:54;11.48;;;6.10;;
22628;SDS011;11481;53.694;9.910;2023-03-19T14:08:24;8.10;;;4.28;;
22628;SDS011;11481;53.694;9.910;2023-03-19T14:10:59;10.02;;;4.78;;
22628;SDS011;11481;53.694;9.910;2023-03-19T14:13:30;8.52;;;4.20;;
22628;SDS011;11481;53.694;9.910;2023-03-19T14:16:10;11.93;;;7.50;;
22628;SDS011;11481;53.694;9.910;2023-03-19T14:18:42;10.98;;;6.13;;
22628;SDS011;11481;53.694;9.910;2023-03-19T14:21:13;11.05;;;3.80;;
22628;SDS011;11481;53.694;9.910;2023-03-19T14:23:50;7.82;;;3.88;;
22628;SDS011;11481;53.694;9.910;2023-03-19T14:26:23;12.73;;;4.45;;
22628;SDS011;11481;53.694;9.910;2023-03-19T14:28:55;9.80;;;5.05;;
22628;SDS011;11481;53.694;9.910;2023-03-19T14:31:32;19.65;;;9.98;;
22628;SDS011;11481;53.694;9.910;2023-03-19T14:34:15;9.90;;;4.95;;
22628;SDS011;11481;53.694;9.910;2023-03-19T14:36:51;12.38;;;6.15;;
22628;SDS011;11481;53.694;9.910;2023-03-19T14:39:41;56.70;;;15.77;;
22628;SDS011;11481;53.694;9.910;2023-03-19T14:50:30;9.85;;;5.78;;
22628;SDS011;11481;53.694;9.910;2023-03-19T14:56:25;35.92;;;12.02;;
22628;SDS011;11481;53.694;9.910;2023-03-19T14:58:57;20.58;;;7.47;;
22628;SDS011;11481;53.694;9.910;2023-03-19T15:01:29;14.70;;;8.05;;
22628;SDS011;11481;53.694;9.910;2023-03-19T15:04:05;11.18;;;5.78;;
22628;SDS011;11481;53.694;9.910;2023-03-19T15:06:38;25.45;;;9.93;;
22628;SDS011;11481;53.694;9.910;2023-03-19T15:09:17;18.67;;;7.57;;
22628;SDS011;11481;53.694;9.910;2023-03-19T15:17:27;178.55;;;41.85;;
22628;SDS011;11481;53.694;9.910;2023-03-19T15:19:59;24.58;;;9.75;;
22628;SDS011;11481;53.694;9.910;2023-03-19T15:25:11;22.55;;;9.80;;
22628;SDS011;11481;53.694;9.910;2023-03-19T15:27:41;20.48;;;9.02;;
22628;SDS011;11481;53.694;9.910;2023-03-19T15:30:20;33.80;;;11.70;;
22628;SDS011;11481;53.694;9.910;2023-03-19T15:32:51;21.98;;;9.88;;
22628;SDS011;11481;53.694;9.910;2023-03-19T15:35:36;20.75;;;9.25;;
22628;SDS011;11481;53.694;9.910;2023-03-19T15:38:07;22.38;;;9.73;;
22628;SDS011;11481;53.694;9.910;2023-03-19T15:40:36;58.97;;;23.85;;
22628;SDS011;11481;53.694;9.910;2023-03-19T15:43:05;56.28;;;17.98;;
22628;SDS011;11481;53.694;9.910;2023-03-19T15:45:37;21.83;;;9.65;;
22628;SDS011;11481;53.694;9.910;2023-03-19T15:48:20;25.17;;;10.10;;
22628;SDS011;11481;53.694;9.910;2023-03-19T15:50:51;19.48;;;9.02;;
22628;SDS011;11481;53.694;9.910;2023-03-19T15:53:24;45.40;;;15.88;;
22628;SDS011;11481;53.694;9.910;2023-03-19T15:55:54;23.17;;;9.85;;
22628;SDS011;11481;53.694;9.910;2023-03-19T15:58:24;18.73;;;9.57;;
22628;SDS011;11481;53.694;9.910;2023-03-19T16:00:54;19.30;;;9.30;;
22628;SDS011;11481;53.694;9.910;2023-03-19T16:03:23;24.30;;;9.68;;
22628;SDS011;11481;53.694;9.910;2023-03-19T16:06:00;24.63;;;11.85;;
22628;SDS011;11481;53.694;9.910;2023-03-19T16:08:29;27.85;;;12.55;;
22628;SDS011;11481;53.694;9.910;2023-03-19T16:11:24;20.60;;;11.10;;
22628;SDS011;11481;53.694;9.910;2023-03-19T16:16:38;23.95;;;12.05;;
22628;SDS011;11481;53.694;9.910;2023-03-19T16:19:22;22.05;;;11.60;;
22628;SDS011;11481;53.694;9.910;2023-03-19T16:21:54;18.60;;;9.70;;
22628;SDS011;11481;53.694;9.910;2023-03-19T16:24:31;24.35;;;10.18;;
22628;SDS011;11481;53.694;9.910;2023-03-19T16:27:11;19.25;;;9.55;;
22628;SDS011;11481;53.694;9.910;2023-03-19T16:29:40;23.60;;;10.60;;
22628;SDS011;11481;53.694;9.910;2023-03-19T16:32:17;23.70;;;10.90;;
22628;SDS011;11481;53.694;9.910;2023-03-19T16:37:46;23.58;;;11.13;;
22628;SDS011;11481;53.694;9.910;2023-03-19T16:42:46;16.48;;;9.20;;